^^
Marion, Virginia Banner
 

Adwolf, VA. Station Historical Data
[ Providing Data Since 6/07/2007 ]
Station Historical Data
 
Daily Summary for January 21, 2018 Units:  Both    English   Metric
« Previous Day
Next Day »
Daily Weekly Monthly Yearly Custom
  Current: High: Low: Average:
Temperature: 45.5 °F /  7.5 °C 53.9 °F /  12.2 °C 27.2 °F /  -2.7 °C 40.6 °F /  4.8 °C
Dew Point: 39.0 °F /  3.9 °C 42.0 °F /  5.6 °C 25.2 °F /  -3.8 °C 34.4 °F /  1.3 °C
Humidity: 78% 93% 62% 80%
Wind Speed: 0.0mph /  0km/h 10.4mph /  16.7km/h - 2.6mph /  4.2km/h
Wind Gust: 0.0mph /  0km/h 10.4mph /  16.7km/h - -
WindCalm - - SSE
Pressure: 30.25 in /  1024.3 hPa 30.35 in /  1027.7 hPa 30.24 in /  1023.9 hPa -
Precipitation: 0.00 in /  0 mm      
Historical Graphs
 
 
Tabular Data for January 21, 2018
Time Temperature Dew Point Pressure Wind Wind Speed Wind Gust Humidity Rainfall Rate (Hourly) solar Conditions
00:03 30.3 °F /  -0.9 °C 27.7 °F /  -2.4 °C 30.31in /  1026.3hPa East 3.5mph /  5.6km/h 3.5mph /  5.6km/h 90% 0.00in /  0mm WeatherDisplay:10.37 W/m2 RA
00:08 30.1 °F /  -1.1 °C 27.8 °F /  -2.3 °C 30.31in /  1026.3hPa East 3.5mph /  5.6km/h 3.5mph /  5.6km/h 91% 0.00in /  0mm WeatherDisplay:10.37 W/m2 RA
00:13 30.0 °F /  -1.1 °C 27.7 °F /  -2.4 °C 30.31in /  1026.3hPa East 2.3mph /  3.7km/h 2.3mph /  3.7km/h 91% 0.00in /  0mm WeatherDisplay:10.37 W/m2 CLR
00:18 29.9 °F /  -1.2 °C 27.6 °F /  -2.4 °C 30.31in /  1026.3hPa East 3.5mph /  5.6km/h 3.5mph /  5.6km/h 91% 0.00in /  0mm WeatherDisplay:10.37 W/m2 CLR
00:23 29.6 °F /  -1.3 °C 27.3 °F /  -2.6 °C 30.31in /  1026.3hPa East 2.3mph /  3.7km/h 2.3mph /  3.7km/h 91% 0.00in /  0mm WeatherDisplay:10.37 W/m2 CLR
00:28 29.4 °F /  -1.4 °C 27.1 °F /  -2.7 °C 30.31in /  1026.3hPa East 2.3mph /  3.7km/h 2.3mph /  3.7km/h 91% 0.00in /  0mm WeatherDisplay:10.37 W/m2 CLR
00:33 29.3 °F /  -1.5 °C 27.0 °F /  -2.8 °C 30.31in /  1026.3hPa East 2.3mph /  3.7km/h 2.3mph /  3.7km/h 91% 0.00in /  0mm WeatherDisplay:10.37 W/m2 CLR
00:38 29.3 °F /  -1.5 °C 27.0 °F /  -2.8 °C 30.31in /  1026.3hPa East 1.2mph /  1.9km/h 1.2mph /  1.9km/h 91% 0.00in /  0mm WeatherDisplay:10.37 W/m2 CLR
00:48 29.0 °F /  -1.7 °C 26.7 °F /  -2.9 °C 30.30in /  1026hPa Calm     91% 0.00in /  0mm WeatherDisplay:10.37 W/m2 CLR
00:58 28.8 °F /  -1.8 °C 26.8 °F /  -2.9 °C 30.30in /  1026hPa East 2.3mph /  3.7km/h 2.3mph /  3.7km/h 92% 0.00in /  0mm WeatherDisplay:10.37 W/m2 CLR
01:08 28.6 °F /  -1.9 °C 26.6 °F /  -3 °C 30.30in /  1026hPa East 1.2mph /  1.9km/h   92% 0.00in /  0mm WeatherDisplay:10.37 W/m2 CLR
01:13 28.5 °F /  -1.9 °C 26.5 °F /  -3.1 °C 30.30in /  1026hPa East 1.2mph /  1.9km/h 1.2mph /  1.9km/h 92% 0.00in /  0mm WeatherDisplay:10.37 W/m2 CLR
01:18 28.3 °F /  -2.1 °C 26.3 °F /  -3.2 °C 30.30in /  1026hPa Calm   0.4mph /  0.6km/h 92% 0.00in /  0mm WeatherDisplay:10.37 W/m2 CLR
01:23 28.2 °F /  -2.1 °C 26.2 °F /  -3.2 °C 30.30in /  1026hPa East 2.3mph /  3.7km/h 2.3mph /  3.7km/h 92% 0.00in /  0mm WeatherDisplay:10.37 W/m2 CLR
01:28 28.0 °F /  -2.2 °C 26.0 °F /  -3.3 °C 30.30in /  1026hPa Calm     92% 0.00in /  0mm WeatherDisplay:10.37 W/m2 CLR
01:33 27.9 °F /  -2.3 °C 25.9 °F /  -3.4 °C 30.30in /  1026hPa Calm     92% 0.00in /  0mm WeatherDisplay:10.37 W/m2 CLR
01:43 27.7 °F /  -2.4 °C 25.7 °F /  -3.5 °C 30.30in /  1026hPa East 2.3mph /  3.7km/h 2.3mph /  3.7km/h 92% 0.00in /  0mm WeatherDisplay:10.37 W/m2 CLR
01:53 27.8 °F /  -2.3 °C 25.8 °F /  -3.4 °C 30.31in /  1026.3hPa East 2.3mph /  3.7km/h 2.3mph /  3.7km/h 92% 0.00in /  0mm WeatherDisplay:10.37 W/m2 CLR
01:58 27.8 °F /  -2.3 °C 25.8 °F /  -3.4 °C 30.30in /  1026hPa East 1.2mph /  1.9km/h 1.2mph /  1.9km/h 92% 0.00in /  0mm WeatherDisplay:10.37 W/m2 CLR
02:03 27.7 °F /  -2.4 °C 25.7 °F /  -3.5 °C 30.30in /  1026hPa Calm     92% 0.00in /  0mm WeatherDisplay:10.37 W/m2 CLR
02:13 27.6 °F /  -2.4 °C 25.6 °F /  -3.6 °C 30.31in /  1026.3hPa Calm     92% 0.00in /  0mm WeatherDisplay:10.37 W/m2 CLR
02:18 27.5 °F /  -2.5 °C 25.5 °F /  -3.6 °C 30.31in /  1026.3hPa Calm     92% 0.00in /  0mm WeatherDisplay:10.37 W/m2 CLR
02:23 27.4 °F /  -2.6 °C 25.4 °F /  -3.7 °C 30.31in /  1026.3hPa East 2.3mph /  3.7km/h 2.3mph /  3.7km/h 92% 0.00in /  0mm WeatherDisplay:10.37 W/m2 CLR
02:28 27.3 °F /  -2.6 °C 25.3 °F /  -3.7 °C 30.31in /  1026.3hPa East 2.3mph /  3.7km/h 2.3mph /  3.7km/h 92% 0.00in /  0mm WeatherDisplay:10.37 W/m2 CLR
02:33 27.2 °F /  -2.7 °C 25.2 °F /  -3.8 °C 30.31in /  1026.3hPa East 2.3mph /  3.7km/h 2.3mph /  3.7km/h 92% 0.00in /  0mm WeatherDisplay:10.37 W/m2 CLR
02:38 27.2 °F /  -2.7 °C 25.4 °F /  -3.7 °C 30.31in /  1026.3hPa East 2.3mph /  3.7km/h 2.3mph /  3.7km/h 93% 0.00in /  0mm WeatherDisplay:10.37 W/m2 CLR
02:43 27.3 °F /  -2.6 °C 25.5 °F /  -3.6 °C 30.31in /  1026.3hPa East 1.2mph /  1.9km/h 1.2mph /  1.9km/h 93% 0.00in /  0mm WeatherDisplay:10.37 W/m2 CLR
02:48 27.6 °F /  -2.4 °C 25.8 °F /  -3.4 °C 30.31in /  1026.3hPa East 2.3mph /  3.7km/h 2.3mph /  3.7km/h 93% 0.00in /  0mm WeatherDisplay:10.37 W/m2 CLR
02:53 27.7 °F /  -2.4 °C 25.9 °F /  -3.4 °C 30.31in /  1026.3hPa East 1.2mph /  1.9km/h   93% 0.00in /  0mm WeatherDisplay:10.37 W/m2 CLR
02:58 27.8 °F /  -2.3 °C 26.0 °F /  -3.3 °C 30.31in /  1026.3hPa East 1.2mph /  1.9km/h 1.2mph /  1.9km/h 93% 0.00in /  0mm WeatherDisplay:10.37 W/m2 CLR
03:03 27.9 °F /  -2.3 °C 26.1 °F /  -3.3 °C 30.31in /  1026.3hPa East 2.3mph /  3.7km/h 2.3mph /  3.7km/h 93% 0.00in /  0mm WeatherDisplay:10.37 W/m2 SCT
03:08 28.3 °F /  -2.1 °C 26.5 °F /  -3.1 °C 30.31in /  1026.3hPa ESE 2.0mph /  3.2km/h 2.0mph /  3.2km/h 93% 0.00in /  0mm WeatherDisplay:10.37 W/m2 SCT
03:13 28.7 °F /  -1.8 °C 26.9 °F /  -2.8 °C 30.31in /  1026.3hPa East 3.5mph /  5.6km/h 3.5mph /  5.6km/h 93% 0.00in /  0mm WeatherDisplay:10.37 W/m2 SCT
03:18 29.0 °F /  -1.7 °C 27.2 °F /  -2.7 °C 30.30in /  1026hPa East 3.5mph /  5.6km/h 3.5mph /  5.6km/h 93% 0.00in /  0mm WeatherDisplay:10.37 W/m2 SCT
03:23 29.2 °F /  -1.6 °C 27.4 °F /  -2.6 °C 30.31in /  1026.3hPa East 2.3mph /  3.7km/h 2.3mph /  3.7km/h 93% 0.00in /  0mm WeatherDisplay:10.37 W/m2 SCT
03:28 29.3 °F /  -1.5 °C 27.5 °F /  -2.5 °C 30.31in /  1026.3hPa East 2.3mph /  3.7km/h 2.3mph /  3.7km/h 93% 0.00in /  0mm WeatherDisplay:10.37 W/m2 SCT
03:33 29.4 °F /  -1.4 °C 27.6 °F /  -2.4 °C 30.30in /  1026hPa East 1.2mph /  1.9km/h 1.2mph /  1.9km/h 93% 0.00in /  0mm WeatherDisplay:10.37 W/m2 BKN
03:38 29.6 °F /  -1.3 °C 27.8 °F /  -2.3 °C 30.30in /  1026hPa East 3.5mph /  5.6km/h 3.5mph /  5.6km/h 93% 0.00in /  0mm WeatherDisplay:10.37 W/m2 BKN
03:48 29.7 °F /  -1.3 °C 27.9 °F /  -2.3 °C 30.30in /  1026hPa East 1.2mph /  1.9km/h   93% 0.00in /  0mm WeatherDisplay:10.37 W/m2 BKN
03:53 29.8 °F /  -1.2 °C 28.0 °F /  -2.2 °C 30.30in /  1026hPa East 3.5mph /  5.6km/h 3.5mph /  5.6km/h 93% 0.00in /  0mm WeatherDisplay:10.37 W/m2 BKN
03:58 29.8 °F /  -1.2 °C 28.0 °F /  -2.2 °C 30.30in /  1026hPa East 2.3mph /  3.7km/h 2.3mph /  3.7km/h 93% 0.00in /  0mm WeatherDisplay:10.37 W/m2 BKN
04:03 30.0 °F /  -1.1 °C 28.2 °F /  -2.1 °C 30.30in /  1026hPa East 2.3mph /  3.7km/h 2.3mph /  3.7km/h 93% 0.00in /  0mm WeatherDisplay:10.37 W/m2 SCT
04:08 30.1 °F /  -1.1 °C 28.3 °F /  -2.1 °C 30.30in /  1026hPa East 2.3mph /  3.7km/h 2.3mph /  3.7km/h 93% 0.00in /  0mm WeatherDisplay:10.37 W/m2 SCT
04:13 30.2 °F /  -1 °C 28.4 °F /  -2 °C 30.30in /  1026hPa East 2.3mph /  3.7km/h 2.3mph /  3.7km/h 93% 0.00in /  0mm WeatherDisplay:10.37 W/m2 SCT
04:18 30.4 °F /  -0.9 °C 28.6 °F /  -1.9 °C 30.30in /  1026hPa East 2.3mph /  3.7km/h 2.3mph /  3.7km/h 93% 0.00in /  0mm WeatherDisplay:10.37 W/m2 SCT
04:23 30.5 °F /  -0.8 °C 28.7 °F /  -1.8 °C 30.30in /  1026hPa East 3.5mph /  5.6km/h 3.5mph /  5.6km/h 93% 0.00in /  0mm WeatherDisplay:10.37 W/m2 SCT
04:28 30.5 °F /  -0.8 °C 28.7 °F /  -1.8 °C 30.30in /  1026hPa East 2.3mph /  3.7km/h 2.3mph /  3.7km/h 93% 0.00in /  0mm WeatherDisplay:10.37 W/m2 SCT
04:33 30.6 °F /  -0.8 °C 28.8 °F /  -1.8 °C 30.30in /  1026hPa East 3.5mph /  5.6km/h 3.5mph /  5.6km/h 93% 0.00in /  0mm WeatherDisplay:10.37 W/m2 BKN
04:38 30.8 °F /  -0.7 °C 29.0 °F /  -1.7 °C 30.30in /  1026hPa East 2.3mph /  3.7km/h 2.3mph /  3.7km/h 93% 0.00in /  0mm WeatherDisplay:10.37 W/m2 BKN
04:43 31.0 °F /  -0.6 °C 29.2 °F /  -1.6 °C 30.30in /  1026hPa East 3.5mph /  5.6km/h 3.5mph /  5.6km/h 93% 0.00in /  0mm WeatherDisplay:10.37 W/m2 BKN
04:48 31.0 °F /  -0.6 °C 29.2 °F /  -1.6 °C 30.30in /  1026hPa East 2.3mph /  3.7km/h 2.3mph /  3.7km/h 93% 0.00in /  0mm WeatherDisplay:10.37 W/m2 BKN
04:49 31.0 °F /  -0.6 °C 29.2 °F /  -1.6 °C 30.30in /  1026hPa East 2.3mph /  3.7km/h 2.3mph /  3.7km/h 93% 0.00in /  0mm WeatherDisplay:10.37 W/m2 BKN
04:54 31.0 °F /  -0.6 °C 29.2 °F /  -1.6 °C 30.30in /  1026hPa East 3.5mph /  5.6km/h 3.5mph /  5.6km/h 93% 0.00in /  0mm WeatherDisplay:10.37 W/m2 OVC
04:59 31.1 °F /  -0.5 °C 29.3 °F /  -1.5 °C 30.30in /  1026hPa East 3.5mph /  5.6km/h 3.5mph /  5.6km/h 93% 0.00in /  0mm WeatherDisplay:10.37 W/m2 OVC
05:04 31.1 °F /  -0.5 °C 29.3 °F /  -1.5 °C 30.30in /  1026hPa East 2.3mph /  3.7km/h 2.3mph /  3.7km/h 93% 0.00in /  0mm WeatherDisplay:10.37 W/m2 OVC
05:09 31.1 °F /  -0.5 °C 29.0 °F /  -1.7 °C 30.30in /  1026hPa East 2.3mph /  3.7km/h 2.3mph /  3.7km/h 92% 0.00in /  0mm WeatherDisplay:10.37 W/m2 OVC
05:14 31.2 °F /  -0.4 °C 29.1 °F /  -1.6 °C 30.30in /  1026hPa East 2.3mph /  3.7km/h 2.3mph /  3.7km/h 92% 0.00in /  0mm WeatherDisplay:10.37 W/m2 OVC
05:19 31.3 °F /  -0.4 °C 29.5 °F /  -1.4 °C 30.30in /  1026hPa East 2.3mph /  3.7km/h 2.3mph /  3.7km/h 93% 0.00in /  0mm WeatherDisplay:10.37 W/m2 OVC
05:24 31.4 °F /  -0.3 °C 29.6 °F /  -1.3 °C 30.30in /  1026hPa East 2.3mph /  3.7km/h 2.3mph /  3.7km/h 93% 0.00in /  0mm WeatherDisplay:10.37 W/m2 OVC
05:29 31.5 °F /  -0.3 °C 29.7 °F /  -1.3 °C 30.30in /  1026hPa East 2.3mph /  3.7km/h 2.3mph /  3.7km/h 93% 0.00in /  0mm WeatherDisplay:10.37 W/m2 OVC
05:34 31.6 °F /  -0.2 °C 29.5 °F /  -1.4 °C 30.30in /  1026hPa East 2.3mph /  3.7km/h 2.3mph /  3.7km/h 92% 0.00in /  0mm WeatherDisplay:10.37 W/m2 BKN
05:39 31.6 °F /  -0.2 °C 29.5 °F /  -1.4 °C 30.30in /  1026hPa East 2.3mph /  3.7km/h 2.3mph /  3.7km/h 92% 0.00in /  0mm WeatherDisplay:10.37 W/m2 BKN
05:44 31.6 °F /  -0.2 °C 29.5 °F /  -1.4 °C 30.30in /  1026hPa East 2.3mph /  3.7km/h 2.3mph /  3.7km/h 92% 0.00in /  0mm WeatherDisplay:10.37 W/m2 BKN
05:49 31.7 °F /  -0.2 °C 29.6 °F /  -1.3 °C 30.30in /  1026hPa East 3.5mph /  5.6km/h 3.5mph /  5.6km/h 92% 0.00in /  0mm WeatherDisplay:10.37 W/m2 BKN
05:54 31.7 °F /  -0.2 °C 29.6 °F /  -1.3 °C 30.30in /  1026hPa East 3.0mph /  4.8km/h 3.0mph /  4.8km/h 92% 0.00in /  0mm WeatherDisplay:10.37 W/m2 BKN
05:59 31.8 °F /  -0.1 °C 29.7 °F /  -1.3 °C 30.31in /  1026.3hPa East 2.3mph /  3.7km/h 2.3mph /  3.7km/h 92% 0.00in /  0mm WeatherDisplay:10.37 W/m2 BKN
06:04 31.9 °F /  -0.1 °C 29.8 °F /  -1.2 °C 30.31in /  1026.3hPa East 2.3mph /  3.7km/h 2.3mph /  3.7km/h 92% 0.00in /  0mm WeatherDisplay:10.37 W/m2 BKN
06:09 31.9 °F /  -0.1 °C 29.8 °F /  -1.2 °C 30.31in /  1026.3hPa East 1.2mph /  1.9km/h 1.2mph /  1.9km/h 92% 0.00in /  0mm WeatherDisplay:10.37 W/m2 BKN
06:14 31.9 °F /  -0.1 °C 29.8 °F /  -1.2 °C 30.31in /  1026.3hPa East 1.0mph /  1.6km/h 1.0mph /  1.6km/h 92% 0.00in /  0mm WeatherDisplay:10.37 W/m2 BKN
06:19 31.9 °F /  -0.1 °C 29.8 °F /  -1.2 °C 30.31in /  1026.3hPa East 1.2mph /  1.9km/h 1.2mph /  1.9km/h 92% 0.00in /  0mm WeatherDisplay:10.37 W/m2 BKN
06:24 31.9 °F /  -0.1 °C 29.8 °F /  -1.2 °C 30.31in /  1026.3hPa East 1.2mph /  1.9km/h 1.2mph /  1.9km/h 92% 0.00in /  0mm WeatherDisplay:10.37 W/m2 BKN
06:29 32.0 °F /  0 °C 29.9 °F /  -1.2 °C 30.31in /  1026.3hPa Calm     92% 0.00in /  0mm WeatherDisplay:10.37 W/m2 BKN
06:34 32.0 °F /  0 °C 29.9 °F /  -1.2 °C 30.31in /  1026.3hPa East 2.3mph /  3.7km/h 2.3mph /  3.7km/h 92% 0.00in /  0mm WeatherDisplay:10.37 W/m2 OVC
06:39 31.9 °F /  -0.1 °C 29.8 °F /  -1.2 °C 30.32in /  1026.6hPa East 1.2mph /  1.9km/h   92% 0.00in /  0mm WeatherDisplay:10.37 W/m2 OVC
06:44 31.9 °F /  -0.1 °C 29.8 °F /  -1.2 °C 30.32in /  1026.6hPa East 2.0mph /  3.2km/h 2.0mph /  3.2km/h 92% 0.00in /  0mm WeatherDisplay:10.37 W/m2 OVC
06:49 31.9 °F /  -0.1 °C 29.8 °F /  -1.2 °C 30.32in /  1026.6hPa East 1.2mph /  1.9km/h 1.2mph /  1.9km/h 92% 0.00in /  0mm WeatherDisplay:10.37 W/m2 OVC
06:54 32.0 °F /  0 °C 29.9 °F /  -1.2 °C 30.32in /  1026.6hPa East 1.2mph /  1.9km/h 1.2mph /  1.9km/h 92% 0.00in /  0mm WeatherDisplay:10.37 W/m2 OVC
06:59 32.1 °F /  0.1 °C 30.0 °F /  -1.1 °C 30.32in /  1026.6hPa East 2.3mph /  3.7km/h 2.3mph /  3.7km/h 92% 0.00in /  0mm WeatherDisplay:10.37 W/m2 OVC
07:04 32.2 °F /  0.1 °C 30.1 °F /  -1.1 °C 30.32in /  1026.6hPa East 3.5mph /  5.6km/h 3.5mph /  5.6km/h 92% 0.00in /  0mm WeatherDisplay:10.37 W/m2 OVC
07:09 32.3 °F /  0.2 °C 30.2 °F /  -1 °C 30.32in /  1026.6hPa East 2.3mph /  3.7km/h 2.3mph /  3.7km/h 92% 0.00in /  0mm WeatherDisplay:10.37 W/m2 OVC
07:14 32.3 °F /  0.2 °C 30.2 °F /  -1 °C 30.32in /  1026.6hPa East 1.2mph /  1.9km/h 1.2mph /  1.9km/h 92% 0.00in /  0mm WeatherDisplay:10.37 W/m2 OVC
07:19 32.4 °F /  0.2 °C 30.3 °F /  -0.9 °C 30.33in /  1027hPa Calm     92% 0.00in /  0mm WeatherDisplay:10.37 W/m2 OVC
07:24 32.5 °F /  0.3 °C 30.4 °F /  -0.9 °C 30.33in /  1027hPa East 2.3mph /  3.7km/h 2.3mph /  3.7km/h 92% 0.00in /  0mm WeatherDisplay:10.37 W/m2 OVC
07:29 32.6 °F /  0.3 °C 30.5 °F /  -0.8 °C 30.33in /  1027hPa East 2.3mph /  3.7km/h 2.3mph /  3.7km/h 92% 0.00in /  0mm WeatherDisplay:10.37 W/m2 OVC
07:34 32.6 °F /  0.3 °C 30.5 °F /  -0.8 °C 30.33in /  1027hPa East 3.5mph /  5.6km/h 3.5mph /  5.6km/h 92% 0.00in /  0mm WeatherDisplay:10.37 W/m2 OVC
07:39 32.8 °F /  0.4 °C 30.7 °F /  -0.7 °C 30.33in /  1027hPa East 3.5mph /  5.6km/h 3.5mph /  5.6km/h 92% 0.00in /  0mm WeatherDisplay:10.37 W/m2 OVC
07:44 32.8 °F /  0.4 °C 30.7 °F /  -0.7 °C 30.33in /  1027hPa East 2.3mph /  3.7km/h 2.3mph /  3.7km/h 92% 0.00in /  0mm WeatherDisplay:10.37 W/m2 BKN
07:49 32.8 °F /  0.4 °C 30.7 °F /  -0.7 °C 30.33in /  1027hPa East 3.5mph /  5.6km/h 3.5mph /  5.6km/h 92% 0.00in /  0mm WeatherDisplay:10.37 W/m2 BKN
07:54 32.8 °F /  0.4 °C 30.7 °F /  -0.7 °C 30.33in /  1027hPa Calm     92% 0.00in /  0mm WeatherDisplay:10.37 W/m2 BKN
07:59 32.8 °F /  0.4 °C 30.7 °F /  -0.7 °C 30.33in /  1027hPa Calm     92% 0.00in /  0mm WeatherDisplay:10.37 W/m2 BKN
08:04 32.9 °F /  0.5 °C 30.8 °F /  -0.7 °C 30.33in /  1027hPa Calm     92% 0.00in /  0mm WeatherDisplay:10.37 W/m2 BKN
08:09 33.1 °F /  0.6 °C 31.0 °F /  -0.6 °C 30.33in /  1027hPa Calm     92% 0.00in /  0mm WeatherDisplay:10.37 W/m2 BKN
08:14 33.4 °F /  0.8 °C 31.3 °F /  -0.4 °C 30.33in /  1027hPa Calm     92% 0.00in /  0mm WeatherDisplay:10.37 W/m2 SCT
08:19 33.6 °F /  0.9 °C 31.5 °F /  -0.3 °C 30.33in /  1027hPa East 3.5mph /  5.6km/h 3.5mph /  5.6km/h 92% 0.00in /  0mm WeatherDisplay:10.37 W/m2 SCT
08:24 33.9 °F /  1.1 °C 31.8 °F /  -0.1 °C 30.33in /  1027hPa East 2.3mph /  3.7km/h 2.3mph /  3.7km/h 92% 0.00in /  0mm WeatherDisplay:10.37 W/m2 SCT
08:29 34.1 °F /  1.2 °C 31.7 °F /  -0.2 °C 30.33in /  1027hPa East 1.2mph /  1.9km/h 1.2mph /  1.9km/h 91% 0.00in /  0mm WeatherDisplay:10.37 W/m2 SCT
08:34 34.3 °F /  1.3 °C 31.9 °F /  -0.1 °C 30.33in /  1027hPa Calm     91% 0.00in /  0mm WeatherDisplay:10.37 W/m2 SCT
08:39 34.7 °F /  1.5 °C 32.3 °F /  0.2 °C 30.33in /  1027hPa East 3.0mph /  4.8km/h 3.0mph /  4.8km/h 91% 0.00in /  0mm WeatherDisplay:10.37 W/m2 SCT
08:44 35.1 °F /  1.7 °C 32.7 °F /  0.4 °C 30.33in /  1027hPa East 2.3mph /  3.7km/h 2.3mph /  3.7km/h 91% 0.00in /  0mm WeatherDisplay:10.37 W/m2 SCT
08:49 35.4 °F /  1.9 °C 32.8 °F /  0.4 °C 30.33in /  1027hPa East 3.5mph /  5.6km/h 3.5mph /  5.6km/h 90% 0.00in /  0mm WeatherDisplay:10.37 W/m2 SCT
08:54 35.6 °F /  2 °C 33.0 °F /  0.6 °C 30.34in /  1027.3hPa East 3.5mph /  5.6km/h 3.5mph /  5.6km/h 90% 0.00in /  0mm WeatherDisplay:10.37 W/m2 BKN
08:59 36.0 °F /  2.2 °C 33.4 °F /  0.8 °C 30.34in /  1027.3hPa East 3.5mph /  5.6km/h 3.5mph /  5.6km/h 90% 0.00in /  0mm WeatherDisplay:10.37 W/m2 BKN
09:04 36.3 °F /  2.4 °C 33.6 °F /  0.9 °C 30.34in /  1027.3hPa East 3.5mph /  5.6km/h 3.5mph /  5.6km/h 90% 0.00in /  0mm WeatherDisplay:10.37 W/m2 OVC
09:10 36.8 °F /  2.7 °C 34.1 °F /  1.2 °C 30.34in /  1027.3hPa East 2.3mph /  3.7km/h 2.3mph /  3.7km/h 90% 0.00in /  0mm WeatherDisplay:10.37 W/m2 OVC
09:15 37.3 °F /  2.9 °C 34.4 °F /  1.3 °C 30.34in /  1027.3hPa East 2.3mph /  3.7km/h 2.3mph /  3.7km/h 89% 0.00in /  0mm WeatherDisplay:10.37 W/m2 OVC
09:20 37.7 °F /  3.2 °C 34.8 °F /  1.6 °C 30.34in /  1027.3hPa East 3.5mph /  5.6km/h 3.5mph /  5.6km/h 89% 0.00in /  0mm WeatherDisplay:10.37 W/m2 OVC
09:25 38.1 °F /  3.4 °C 34.9 °F /  1.6 °C 30.34in /  1027.3hPa East 3.0mph /  4.8km/h 3.0mph /  4.8km/h 88% 0.00in /  0mm WeatherDisplay:10.37 W/m2 OVC
09:30 38.3 °F /  3.5 °C 34.8 °F /  1.6 °C 30.34in /  1027.3hPa East 2.3mph /  3.7km/h 2.3mph /  3.7km/h 87% 0.00in /  0mm WeatherDisplay:10.37 W/m2 OVC
09:35 38.6 °F /  3.7 °C 35.1 °F /  1.7 °C 30.35in /  1027.7hPa East 2.3mph /  3.7km/h 2.3mph /  3.7km/h 87% 0.00in /  0mm WeatherDisplay:10.37 W/m2 OVC
09:40 38.9 °F /  3.8 °C 35.4 °F /  1.9 °C 30.35in /  1027.7hPa Calm     87% 0.00in /  0mm WeatherDisplay:10.37 W/m2 OVC
09:45 39.3 °F /  4.1 °C 35.5 °F /  1.9 °C 30.35in /  1027.7hPa East 3.5mph /  5.6km/h 3.5mph /  5.6km/h 86% 0.00in /  0mm WeatherDisplay:10.37 W/m2 OVC
09:50 39.7 °F /  4.3 °C 35.9 °F /  2.2 °C 30.35in /  1027.7hPa East 3.5mph /  5.6km/h 3.5mph /  5.6km/h 86% 0.00in /  0mm WeatherDisplay:10.37 W/m2 OVC
09:55 40.1 °F /  4.5 °C 35.7 °F /  2.1 °C 30.35in /  1027.7hPa East 3.5mph /  5.6km/h 3.5mph /  5.6km/h 84% 0.00in /  0mm WeatherDisplay:10.37 W/m2 OVC
10:00 40.3 °F /  4.6 °C 36.1 °F /  2.3 °C 30.35in /  1027.7hPa Calm     85% 0.00in /  0mm WeatherDisplay:10.37 W/m2 OVC
10:05 40.6 °F /  4.8 °C 36.1 °F /  2.3 °C 30.35in /  1027.7hPa Calm     84% 0.00in /  0mm WeatherDisplay:10.37 W/m2 OVC
10:10 40.9 °F /  4.9 °C 36.4 °F /  2.4 °C 30.35in /  1027.7hPa East 2.0mph /  3.2km/h 2.0mph /  3.2km/h 84% 0.00in /  0mm WeatherDisplay:10.37 W/m2 OVC
10:15 41.1 °F /  5.1 °C 36.6 °F /  2.6 °C 30.35in /  1027.7hPa East 2.3mph /  3.7km/h 2.3mph /  3.7km/h 84% 0.00in /  0mm WeatherDisplay:10.37 W/m2 OVC
10:20 41.5 °F /  5.3 °C 37.0 °F /  2.8 °C 30.35in /  1027.7hPa Calm     84% 0.00in /  0mm WeatherDisplay:10.37 W/m2 OVC
10:25 42.0 °F /  5.6 °C 37.5 °F /  3.1 °C 30.35in /  1027.7hPa Calm     84% 0.00in /  0mm WeatherDisplay:10.37 W/m2 OVC
10:30 42.7 °F /  5.9 °C 37.6 °F /  3.1 °C 30.35in /  1027.7hPa Calm     82% 0.00in /  0mm WeatherDisplay:10.37 W/m2 OVC
10:35 43.5 °F /  6.4 °C 37.7 °F /  3.2 °C 30.35in /  1027.7hPa East 2.3mph /  3.7km/h 2.3mph /  3.7km/h 80% 0.00in /  0mm WeatherDisplay:10.37 W/m2 OVC
10:40 44.5 °F /  6.9 °C 38.1 °F /  3.4 °C 30.35in /  1027.7hPa East 2.3mph /  3.7km/h 2.3mph /  3.7km/h 78% 0.00in /  0mm WeatherDisplay:10.37 W/m2 OVC
10:45 45.2 °F /  7.3 °C 38.1 °F /  3.4 °C 30.35in /  1027.7hPa SE 3.5mph /  5.6km/h 3.5mph /  5.6km/h 76% 0.00in /  0mm WeatherDisplay:10.37 W/m2 OVC
10:50 45.8 °F /  7.7 °C 38.0 °F /  3.3 °C 30.35in /  1027.7hPa SW 3.5mph /  5.6km/h 3.5mph /  5.6km/h 74% 0.00in /  0mm WeatherDisplay:10.37 W/m2 OVC
10:55 46.3 °F /  7.9 °C 38.1 °F /  3.4 °C 30.35in /  1027.7hPa SW 3.5mph /  5.6km/h 3.5mph /  5.6km/h 73% 0.00in /  0mm WeatherDisplay:10.37 W/m2 OVC
11:00 46.7 °F /  8.2 °C 38.1 °F /  3.4 °C 30.35in /  1027.7hPa SW 3.5mph /  5.6km/h 3.5mph /  5.6km/h 72% 0.00in /  0mm WeatherDisplay:10.37 W/m2 OVC
11:05 47.2 °F /  8.4 °C 38.3 °F /  3.5 °C 30.34in /  1027.3hPa SW 4.0mph /  6.4km/h 4.0mph /  6.4km/h 71% 0.00in /  0mm WeatherDisplay:10.37 W/m2 OVC
11:10 47.8 °F /  8.8 °C 38.5 °F /  3.6 °C 30.34in /  1027.3hPa SW 4.0mph /  6.4km/h 4.0mph /  6.4km/h 70% 0.00in /  0mm WeatherDisplay:10.37 W/m2 OVC
11:15 48.3 °F /  9.1 °C 38.2 °F /  3.4 °C 30.34in /  1027.3hPa WSW 3.5mph /  5.6km/h 3.5mph /  5.6km/h 68% 0.00in /  0mm WeatherDisplay:10.37 W/m2 OVC
11:20 48.6 °F /  9.2 °C 38.1 °F /  3.4 °C 30.34in /  1027.3hPa WSW 4.6mph /  7.4km/h 4.6mph /  7.4km/h 67% 0.00in /  0mm WeatherDisplay:10.37 W/m2 OVC
11:21 48.7 °F /  9.3 °C 38.2 °F /  3.4 °C 30.34in /  1027.3hPa SW 4.6mph /  7.4km/h 4.6mph /  7.4km/h 67% 0.00in /  0mm WeatherDisplay:10.37 W/m2 OVC
11:26 48.9 °F /  9.4 °C 38.4 °F /  3.6 °C 30.34in /  1027.3hPa West 5.8mph /  9.3km/h 5.8mph /  9.3km/h 67% 0.00in /  0mm WeatherDisplay:10.37 W/m2 OVC
11:31 48.8 °F /  9.3 °C 37.9 °F /  3.3 °C 30.34in /  1027.3hPa West 3.5mph /  5.6km/h 3.5mph /  5.6km/h 66% 0.00in /  0mm WeatherDisplay:10.37 W/m2 OVC
11:36 48.9 °F /  9.4 °C 38.0 °F /  3.3 °C 30.34in /  1027.3hPa West 3.5mph /  5.6km/h 3.5mph /  5.6km/h 66% 0.00in /  0mm WeatherDisplay:10.37 W/m2 OVC
11:41 48.9 °F /  9.4 °C 38.0 °F /  3.3 °C 30.34in /  1027.3hPa West 6.0mph /  9.7km/h 6.0mph /  9.7km/h 66% 0.00in /  0mm WeatherDisplay:10.37 W/m2 OVC
11:46 48.9 °F /  9.4 °C 38.0 °F /  3.3 °C 30.33in /  1027hPa SW 4.6mph /  7.4km/h 4.6mph /  7.4km/h 66% 0.00in /  0mm WeatherDisplay:10.37 W/m2 OVC
11:51 49.1 °F /  9.5 °C 38.2 °F /  3.4 °C 30.34in /  1027.3hPa WSW 3.5mph /  5.6km/h 3.5mph /  5.6km/h 66% 0.00in /  0mm WeatherDisplay:10.37 W/m2 OVC
11:56 48.9 °F /  9.4 °C 38.0 °F /  3.3 °C 30.33in /  1027hPa West 6.9mph /  11.1km/h 6.9mph /  11.1km/h 66% 0.00in /  0mm WeatherDisplay:10.37 W/m2 OVC
12:01 48.9 °F /  9.4 °C 38.4 °F /  3.6 °C 30.33in /  1027hPa West 5.8mph /  9.3km/h 5.8mph /  9.3km/h 67% 0.00in /  0mm WeatherDisplay:10.37 W/m2 OVC
12:06 49.2 °F /  9.6 °C 38.7 °F /  3.7 °C 30.32in /  1026.6hPa SW 4.0mph /  6.4km/h 4.0mph /  6.4km/h 67% 0.00in /  0mm WeatherDisplay:10.37 W/m2 OVC
12:11 49.6 °F /  9.8 °C 38.7 °F /  3.7 °C 30.32in /  1026.6hPa West 3.5mph /  5.6km/h 3.5mph /  5.6km/h 66% 0.00in /  0mm WeatherDisplay:10.37 W/m2 OVC
12:16 49.8 °F /  9.9 °C 38.5 °F /  3.6 °C 30.32in /  1026.6hPa SW 5.8mph /  9.3km/h 5.8mph /  9.3km/h 65% 0.00in /  0mm WeatherDisplay:10.37 W/m2 OVC
12:21 50.1 °F /  10.1 °C 38.8 °F /  3.8 °C 30.31in /  1026.3hPa West 3.5mph /  5.6km/h 3.5mph /  5.6km/h 65% 0.00in /  0mm WeatherDisplay:10.37 W/m2 OVC
12:26 50.3 °F /  10.2 °C 39.0 °F /  3.9 °C 30.31in /  1026.3hPa West 5.8mph /  9.3km/h 5.8mph /  9.3km/h 65% 0.00in /  0mm WeatherDisplay:10.37 W/m2 OVC
12:31 50.3 °F /  10.2 °C 39.0 °F /  3.9 °C 30.31in /  1026.3hPa WSW 5.8mph /  9.3km/h 5.8mph /  9.3km/h 65% 0.00in /  0mm WeatherDisplay:10.37 W/m2 OVC
12:36 50.6 °F /  10.3 °C 39.3 °F /  4.1 °C 30.31in /  1026.3hPa West 5.8mph /  9.3km/h 5.8mph /  9.3km/h 65% 0.00in /  0mm WeatherDisplay:10.37 W/m2 OVC
12:41 50.9 °F /  10.5 °C 39.1 °F /  3.9 °C 30.30in /  1026hPa WSW 5.0mph /  8km/h 5.0mph /  8km/h 64% 0.00in /  0mm WeatherDisplay:10.37 W/m2 OVC
12:46 51.0 °F /  10.6 °C 39.2 °F /  4 °C 30.30in /  1026hPa SW 5.8mph /  9.3km/h 5.8mph /  9.3km/h 64% 0.00in /  0mm WeatherDisplay:10.37 W/m2 OVC
12:51 51.2 °F /  10.7 °C 39.4 °F /  4.1 °C 30.30in /  1026hPa West 4.0mph /  6.4km/h 4.0mph /  6.4km/h 64% 0.00in /  0mm WeatherDisplay:10.37 W/m2 OVC
12:56 51.3 °F /  10.7 °C 39.1 °F /  3.9 °C 30.30in /  1026hPa SW 5.8mph /  9.3km/h 5.8mph /  9.3km/h 63% 0.00in /  0mm WeatherDisplay:10.37 W/m2 OVC
13:01 51.6 °F /  10.9 °C 39.8 °F /  4.3 °C 30.30in /  1026hPa WSW 4.0mph /  6.4km/h 4.0mph /  6.4km/h 64% 0.00in /  0mm WeatherDisplay:10.37 W/m2 OVC
13:06 51.6 °F /  10.9 °C 39.0 °F /  3.9 °C 30.29in /  1025.6hPa West 6.9mph /  11.1km/h 6.9mph /  11.1km/h 62% 0.00in /  0mm WeatherDisplay:10.37 W/m2 OVC
13:11 51.4 °F /  10.8 °C 39.2 °F /  4 °C 30.29in /  1025.6hPa West 8.1mph /  13km/h 8.1mph /  13km/h 63% 0.00in /  0mm WeatherDisplay:10.37 W/m2 OVC
13:16 51.5 °F /  10.8 °C 39.3 °F /  4.1 °C 30.29in /  1025.6hPa WSW 8.1mph /  13km/h 8.1mph /  13km/h 63% 0.00in /  0mm WeatherDisplay:10.37 W/m2 OVC
13:21 51.5 °F /  10.8 °C 39.3 °F /  4.1 °C 30.29in /  1025.6hPa SW 5.8mph /  9.3km/h 5.8mph /  9.3km/h 63% 0.00in /  0mm WeatherDisplay:10.37 W/m2 OVC
13:26 51.5 °F /  10.8 °C 39.7 °F /  4.3 °C 30.28in /  1025.3hPa SSW 5.8mph /  9.3km/h 5.8mph /  9.3km/h 64% 0.00in /  0mm WeatherDisplay:10.37 W/m2 OVC
13:31 51.8 °F /  11 °C 40.0 °F /  4.4 °C 30.28in /  1025.3hPa WSW 5.8mph /  9.3km/h 5.8mph /  9.3km/h 64% 0.00in /  0mm WeatherDisplay:10.37 W/m2 OVC
13:36 52.0 °F /  11.1 °C 39.8 °F /  4.3 °C 30.28in /  1025.3hPa WSW 3.5mph /  5.6km/h 3.5mph /  5.6km/h 63% 0.00in /  0mm WeatherDisplay:10.37 W/m2 OVC
13:41 52.2 °F /  11.2 °C 39.6 °F /  4.2 °C 30.28in /  1025.3hPa SSW 8.1mph /  13km/h 8.1mph /  13km/h 62% 0.00in /  0mm WeatherDisplay:10.37 W/m2 OVC
13:46 52.2 °F /  11.2 °C 40.0 °F /  4.4 °C 30.27in /  1024.9hPa West 3.5mph /  5.6km/h 3.5mph /  5.6km/h 63% 0.00in /  0mm WeatherDisplay:10.37 W/m2 OVC
13:51 52.2 °F /  11.2 °C 39.6 °F /  4.2 °C 30.27in /  1024.9hPa West 9.2mph /  14.8km/h 9.2mph /  14.8km/h 62% 0.00in /  0mm WeatherDisplay:10.37 W/m2 OVC
13:56 52.2 °F /  11.2 °C 40.0 °F /  4.4 °C 30.27in /  1024.9hPa West 5.8mph /  9.3km/h 5.8mph /  9.3km/h 63% 0.00in /  0mm WeatherDisplay:10.37 W/m2 OVC
14:01 52.2 °F /  11.2 °C 40.0 °F /  4.4 °C 30.27in /  1024.9hPa WSW 10.4mph /  16.7km/h 10.4mph /  16.7km/h 63% 0.00in /  0mm WeatherDisplay:10.37 W/m2 OVC
14:06 52.3 °F /  11.3 °C 40.1 °F /  4.5 °C 30.27in /  1024.9hPa WSW 8.1mph /  13km/h 8.1mph /  13km/h 63% 0.00in /  0mm WeatherDisplay:10.37 W/m2 OVC
14:11 52.4 °F /  11.3 °C 40.2 °F /  4.6 °C 30.27in /  1024.9hPa West 8.1mph /  13km/h 8.1mph /  13km/h 63% 0.00in /  0mm WeatherDisplay:10.37 W/m2 OVC
14:16 52.6 °F /  11.4 °C 40.4 °F /  4.7 °C 30.27in /  1024.9hPa WSW 8.1mph /  13km/h 8.1mph /  13km/h 63% 0.00in /  0mm WeatherDisplay:10.37 W/m2 OVC
14:21 52.6 °F /  11.4 °C 40.4 °F /  4.7 °C 30.26in /  1024.6hPa WSW 3.5mph /  5.6km/h 3.5mph /  5.6km/h 63% 0.00in /  0mm WeatherDisplay:10.37 W/m2 OVC
14:26 52.7 °F /  11.5 °C 40.5 °F /  4.7 °C 30.27in /  1024.9hPa West 4.6mph /  7.4km/h 4.6mph /  7.4km/h 63% 0.00in /  0mm WeatherDisplay:10.37 W/m2 OVC
14:31 52.9 °F /  11.6 °C 40.6 °F /  4.8 °C 30.26in /  1024.6hPa WSW 5.8mph /  9.3km/h 5.8mph /  9.3km/h 63% 0.00in /  0mm WeatherDisplay:10.37 W/m2 OVC
14:36 53.0 °F /  11.7 °C 40.7 °F /  4.8 °C 30.26in /  1024.6hPa WSW 3.5mph /  5.6km/h 3.5mph /  5.6km/h 63% 0.00in /  0mm WeatherDisplay:10.37 W/m2 OVC
14:41 53.2 °F /  11.8 °C 40.5 °F /  4.7 °C 30.26in /  1024.6hPa WSW 4.6mph /  7.4km/h 4.6mph /  7.4km/h 62% 0.00in /  0mm WeatherDisplay:10.37 W/m2 OVC
14:46 53.2 °F /  11.8 °C 40.5 °F /  4.7 °C 30.26in /  1024.6hPa SW 8.1mph /  13km/h 8.1mph /  13km/h 62% 0.00in /  0mm WeatherDisplay:10.37 W/m2 OVC
14:51 53.1 °F /  11.7 °C 40.4 °F /  4.7 °C 30.26in /  1024.6hPa West 8.1mph /  13km/h 8.1mph /  13km/h 62% 0.00in /  0mm WeatherDisplay:10.37 W/m2 OVC
14:56 53.0 °F /  11.7 °C 40.3 °F /  4.6 °C 30.26in /  1024.6hPa WSW 6.9mph /  11.1km/h 6.9mph /  11.1km/h 62% 0.00in /  0mm WeatherDisplay:10.37 W/m2 OVC
15:01 53.1 °F /  11.7 °C 40.8 °F /  4.9 °C 30.26in /  1024.6hPa SW 3.5mph /  5.6km/h 3.5mph /  5.6km/h 63% 0.00in /  0mm WeatherDisplay:10.37 W/m2 OVC
15:06 53.2 °F /  11.8 °C 41.3 °F /  5.2 °C 30.26in /  1024.6hPa SW 3.5mph /  5.6km/h 3.5mph /  5.6km/h 64% 0.00in /  0mm WeatherDisplay:10.37 W/m2 OVC
15:11 53.4 °F /  11.9 °C 40.7 °F /  4.8 °C 30.26in /  1024.6hPa WSW 3.5mph /  5.6km/h 3.5mph /  5.6km/h 62% 0.00in /  0mm WeatherDisplay:10.37 W/m2 OVC
15:16 53.5 °F /  11.9 °C 41.2 °F /  5.1 °C 30.26in /  1024.6hPa West 2.3mph /  3.7km/h 2.3mph /  3.7km/h 63% 0.00in /  0mm WeatherDisplay:10.37 W/m2 OVC
15:21 53.5 °F /  11.9 °C 41.2 °F /  5.1 °C 30.26in /  1024.6hPa West 4.6mph /  7.4km/h 4.6mph /  7.4km/h 63% 0.00in /  0mm WeatherDisplay:10.37 W/m2 OVC
15:26 53.5 °F /  11.9 °C 41.2 °F /  5.1 °C 30.26in /  1024.6hPa West 3.5mph /  5.6km/h 3.5mph /  5.6km/h 63% 0.00in /  0mm WeatherDisplay:10.37 W/m2 OVC
15:31 53.5 °F /  11.9 °C 41.2 °F /  5.1 °C 30.26in /  1024.6hPa South 3.5mph /  5.6km/h 3.5mph /  5.6km/h 63% 0.00in /  0mm WeatherDisplay:10.37 W/m2 OVC
15:36 53.6 °F /  12 °C 41.3 °F /  5.2 °C 30.25in /  1024.3hPa SW 4.0mph /  6.4km/h 4.0mph /  6.4km/h 63% 0.00in /  0mm WeatherDisplay:10.37 W/m2 OVC
15:41 53.7 °F /  12.1 °C 41.4 °F /  5.2 °C 30.26in /  1024.6hPa WSW 3.5mph /  5.6km/h 3.5mph /  5.6km/h 63% 0.00in /  0mm WeatherDisplay:10.37 W/m2 OVC
15:46 53.7 °F /  12.1 °C 41.4 °F /  5.2 °C 30.26in /  1024.6hPa SSW 2.3mph /  3.7km/h 2.3mph /  3.7km/h 63% 0.00in /  0mm WeatherDisplay:10.37 W/m2 OVC
15:51 53.9 °F /  12.2 °C 42.0 °F /  5.6 °C 30.25in /  1024.3hPa South 2.0mph /  3.2km/h 2.0mph /  3.2km/h 64% 0.00in /  0mm WeatherDisplay:10.37 W/m2 OVC
16:01 53.9 °F /  12.2 °C 41.6 °F /  5.3 °C 30.25in /  1024.3hPa WSW 1.2mph /  1.9km/h 1.2mph /  1.9km/h 63% 0.00in /  0mm WeatherDisplay:10.37 W/m2 OVC
16:06 53.9 °F /  12.2 °C 41.6 °F /  5.3 °C 30.25in /  1024.3hPa WSW 1.2mph /  1.9km/h   63% 0.00in /  0mm WeatherDisplay:10.37 W/m2 OVC
16:11 53.9 °F /  12.2 °C 41.6 °F /  5.3 °C 30.26in /  1024.6hPa WNW 2.3mph /  3.7km/h 2.3mph /  3.7km/h 63% 0.00in /  0mm WeatherDisplay:10.37 W/m2 OVC
16:16 53.7 °F /  12.1 °C 41.4 °F /  5.2 °C 30.25in /  1024.3hPa WNW 2.3mph /  3.7km/h 2.3mph /  3.7km/h 63% 0.00in /  0mm WeatherDisplay:10.37 W/m2 OVC
16:21 53.6 °F /  12 °C 41.3 °F /  5.2 °C 30.26in /  1024.6hPa WNW 3.5mph /  5.6km/h 3.5mph /  5.6km/h 63% 0.00in /  0mm WeatherDisplay:10.37 W/m2 OVC
16:26 53.3 °F /  11.8 °C 41.0 °F /  5 °C 30.26in /  1024.6hPa WNW 3.5mph /  5.6km/h 3.5mph /  5.6km/h 63% 0.00in /  0mm WeatherDisplay:10.37 W/m2 OVC
16:36 53.2 °F /  11.8 °C 41.7 °F /  5.4 °C 30.26in /  1024.6hPa WNW 2.3mph /  3.7km/h 2.3mph /  3.7km/h 65% 0.00in /  0mm WeatherDisplay:10.37 W/m2 OVC
16:46 53.0 °F /  11.7 °C 41.5 °F /  5.3 °C 30.26in /  1024.6hPa WNW 1.2mph /  1.9km/h 1.2mph /  1.9km/h 65% 0.00in /  0mm WeatherDisplay:10.37 W/m2 OVC
16:56 52.9 °F /  11.6 °C 41.4 °F /  5.2 °C 30.26in /  1024.6hPa Calm     65% 0.00in /  0mm WeatherDisplay:10.37 W/m2 OVC
17:01 52.9 °F /  11.6 °C 41.4 °F /  5.2 °C 30.26in /  1024.6hPa Calm     65% 0.00in /  0mm WeatherDisplay:10.37 W/m2 OVC
17:06 52.9 °F /  11.6 °C 41.4 °F /  5.2 °C 30.26in /  1024.6hPa Calm     65% 0.00in /  0mm WeatherDisplay:10.37 W/m2 OVC
17:11 52.9 °F /  11.6 °C 41.4 °F /  5.2 °C 30.26in /  1024.6hPa Calm     65% 0.00in /  0mm WeatherDisplay:10.37 W/m2 OVC
17:16 52.9 °F /  11.6 °C 41.4 °F /  5.2 °C 30.25in /  1024.3hPa Calm     65% 0.00in /  0mm WeatherDisplay:10.37 W/m2 OVC
17:21 52.8 °F /  11.6 °C 41.7 °F /  5.4 °C 30.26in /  1024.6hPa Calm     66% 0.00in /  0mm WeatherDisplay:10.37 W/m2 OVC
17:26 52.6 °F /  11.4 °C 41.6 °F /  5.3 °C 30.25in /  1024.3hPa Calm     66% 0.00in /  0mm WeatherDisplay:10.37 W/m2 OVC
17:31 52.5 °F /  11.4 °C 41.5 °F /  5.3 °C 30.25in /  1024.3hPa Calm     66% 0.00in /  0mm WeatherDisplay:10.37 W/m2 OVC
17:36 52.3 °F /  11.3 °C 41.3 °F /  5.2 °C 30.25in /  1024.3hPa Calm     66% 0.00in /  0mm WeatherDisplay:10.37 W/m2 OVC
17:41 52.1 °F /  11.2 °C 41.5 °F /  5.3 °C 30.25in /  1024.3hPa Calm     67% 0.00in /  0mm WeatherDisplay:10.37 W/m2 OVC
17:46 51.7 °F /  10.9 °C 41.1 °F /  5.1 °C 30.25in /  1024.3hPa Calm     67% 0.00in /  0mm WeatherDisplay:10.37 W/m2 OVC
17:51 51.4 °F /  10.8 °C 41.2 °F /  5.1 °C 30.25in /  1024.3hPa Calm     68% 0.00in /  0mm WeatherDisplay:10.37 W/m2 OVC
17:56 51.1 °F /  10.6 °C 40.9 °F /  4.9 °C 30.25in /  1024.3hPa Calm     68% 0.00in /  0mm WeatherDisplay:10.37 W/m2 OVC
18:01 50.8 °F /  10.4 °C 41.0 °F /  5 °C 30.25in /  1024.3hPa Calm     69% 0.00in /  0mm WeatherDisplay:10.37 W/m2 OVC
18:06 50.4 °F /  10.2 °C 41.0 °F /  5 °C 30.25in /  1024.3hPa Calm     70% 0.00in /  0mm WeatherDisplay:10.37 W/m2 OVC
18:11 50.2 °F /  10.1 °C 40.8 °F /  4.9 °C 30.25in /  1024.3hPa Calm     70% 0.00in /  0mm WeatherDisplay:10.37 W/m2 OVC
18:16 49.9 °F /  9.9 °C 40.9 °F /  4.9 °C 30.25in /  1024.3hPa Calm     71% 0.00in /  0mm WeatherDisplay:10.37 W/m2 OVC
18:21 49.6 °F /  9.8 °C 40.6 °F /  4.8 °C 30.24in /  1023.9hPa Calm     71% 0.00in /  0mm WeatherDisplay:10.37 W/m2 OVC
18:26 49.2 °F /  9.6 °C 40.6 °F /  4.8 °C 30.25in /  1024.3hPa Calm     72% 0.00in /  0mm WeatherDisplay:10.37 W/m2 OVC
18:31 48.7 °F /  9.3 °C 40.4 °F /  4.7 °C 30.24in /  1023.9hPa Calm     73% 0.00in /  0mm WeatherDisplay:10.37 W/m2 OVC
18:36 48.3 °F /  9.1 °C 40.0 °F /  4.4 °C 30.24in /  1023.9hPa Calm     73% 0.00in /  0mm WeatherDisplay:10.37 W/m2 OVC
18:41 48.0 °F /  8.9 °C 40.1 °F /  4.5 °C 30.24in /  1023.9hPa WNW 2.0mph /  3.2km/h 2.0mph /  3.2km/h 74% 0.00in /  0mm WeatherDisplay:10.37 W/m2 OVC
18:46 47.5 °F /  8.6 °C 39.6 °F /  4.2 °C 30.25in /  1024.3hPa Calm     74% 0.00in /  0mm WeatherDisplay:10.37 W/m2 OVC
18:51 47.2 °F /  8.4 °C 39.7 °F /  4.3 °C 30.25in /  1024.3hPa Calm     75% 0.00in /  0mm WeatherDisplay:10.37 W/m2 OVC
18:56 46.8 °F /  8.2 °C 39.3 °F /  4.1 °C 30.25in /  1024.3hPa Calm     75% 0.00in /  0mm WeatherDisplay:10.37 W/m2 OVC
19:01 46.2 °F /  7.9 °C 39.4 °F /  4.1 °C 30.25in /  1024.3hPa WNW 1.2mph /  1.9km/h 1.2mph /  1.9km/h 77% 0.00in /  0mm WeatherDisplay:10.37 W/m2 OVC
19:06 45.8 °F /  7.7 °C 39.0 °F /  3.9 °C 30.25in /  1024.3hPa Calm     77% 0.00in /  0mm WeatherDisplay:10.37 W/m2 OVC
19:11 45.5 °F /  7.5 °C 39.0 °F /  3.9 °C 30.25in /  1024.3hPa Calm     78% 0.00in /  0mm WeatherDisplay:10.37 W/m2 OVC
Smyth Weather
Compliments of Weather Underground - 2.75 mb